createdAt,value
2018-12-29T00:01:56.470Z,6.40
2018-12-29T00:07:01.754Z,6.40
2018-12-29T00:12:07.010Z,6.40
2018-12-29T00:17:12.271Z,6.40
2018-12-29T00:22:17.513Z,6.30
2018-12-29T00:27:22.809Z,6.30
2018-12-29T00:32:28.042Z,6.30
2018-12-29T00:37:33.351Z,6.30
2018-12-29T00:42:38.606Z,6.20
2018-12-29T00:47:43.862Z,6.20
2018-12-29T00:52:49.094Z,6.20
2018-12-29T00:57:54.333Z,6.20
2018-12-29T01:02:59.582Z,6.20
2018-12-29T01:08:04.812Z,6.20
2018-12-29T01:13:10.051Z,6.20
2018-12-29T01:18:15.315Z,6.20
2018-12-29T01:23:20.570Z,6.20
2018-12-29T01:28:25.850Z,6.20
2018-12-29T01:33:31.093Z,6.30
2018-12-29T01:38:36.349Z,6.30
2018-12-29T01:43:41.622Z,6.30
2018-12-29T01:48:46.858Z,6.30
2018-12-29T01:53:52.159Z,6.30
2018-12-29T01:58:57.521Z,6.30
2018-12-29T02:04:02.766Z,6.30
2018-12-29T02:09:08.066Z,6.30
2018-12-29T02:14:13.293Z,6.30
2018-12-29T02:19:18.565Z,6.30
2018-12-29T02:24:23.798Z,6.30
2018-12-29T02:29:29.037Z,6.40
2018-12-29T02:34:34.263Z,6.40
2018-12-29T02:39:39.527Z,6.40
2018-12-29T02:44:44.881Z,6.40
2018-12-29T02:49:50.146Z,6.40
2018-12-29T02:54:55.456Z,6.40
2018-12-29T03:00:00.691Z,6.40
2018-12-29T03:05:06.001Z,6.40
2018-12-29T03:10:11.279Z,6.30
2018-12-29T03:15:16.542Z,6.30
2018-12-29T03:20:21.815Z,6.40
2018-12-29T03:25:27.069Z,6.30
2018-12-29T03:30:32.311Z,6.40
2018-12-29T03:35:37.580Z,6.30
2018-12-29T03:40:42.826Z,6.30
2018-12-29T03:45:49.251Z,6.30
2018-12-29T03:50:53.405Z,6.30
2018-12-29T03:55:58.654Z,6.30
2018-12-29T04:01:03.907Z,6.30
2018-12-29T04:06:09.163Z,6.30
2018-12-29T04:11:14.403Z,6.30
2018-12-29T04:16:19.662Z,6.20
2018-12-29T04:21:24.954Z,6.30
2018-12-29T04:26:30.202Z,6.30
2018-12-29T04:31:35.466Z,6.30
2018-12-29T04:36:40.713Z,6.30
2018-12-29T04:41:45.968Z,6.20
2018-12-29T04:46:51.236Z,6.20
2018-12-29T04:51:56.465Z,6.20
2018-12-29T04:57:01.795Z,6.20
2018-12-29T05:02:07.038Z,6.20
2018-12-29T05:07:12.306Z,6.20
2018-12-29T05:12:17.554Z,6.20
2018-12-29T05:17:22.828Z,6.20
2018-12-29T05:22:28.134Z,6.10
2018-12-29T05:27:33.357Z,6.20
2018-12-29T05:32:38.607Z,6.10
2018-12-29T05:37:43.853Z,6.20
2018-12-29T05:42:49.086Z,6.10
2018-12-29T05:47:54.349Z,6.20
2018-12-29T05:52:59.577Z,6.20
2018-12-29T05:58:04.829Z,6.10
2018-12-29T06:03:10.064Z,6.10
2018-12-29T06:08:15.340Z,6.10
2018-12-29T06:13:20.609Z,6.10
2018-12-29T06:18:25.842Z,6.10
2018-12-29T06:23:31.069Z,6.20
2018-12-29T06:28:36.321Z,6.10
2018-12-29T06:33:41.561Z,6.20
2018-12-29T06:38:46.796Z,6.10
2018-12-29T06:43:52.025Z,6.20
2018-12-29T06:48:57.291Z,6.10
2018-12-29T06:54:02.530Z,6.00
2018-12-29T06:59:07.781Z,6.00
2018-12-29T07:04:13.014Z,6.00
2018-12-29T07:09:18.327Z,6.10
2018-12-29T07:14:23.567Z,6.10
2018-12-29T07:19:28.818Z,6.00
2018-12-29T07:24:34.043Z,6.00
2018-12-29T07:29:39.307Z,6.00
2018-12-29T07:34:44.564Z,6.00
2018-12-29T07:39:49.822Z,6.00
2018-12-29T07:44:55.819Z,6.00
2018-12-29T07:50:01.101Z,6.00
2018-12-29T07:55:06.585Z,6.10
2018-12-29T08:00:11.926Z,6.10
2018-12-29T08:05:17.199Z,6.10
2018-12-29T08:10:22.449Z,6.10
2018-12-29T08:15:27.700Z,6.00
2018-12-29T08:20:32.930Z,6.10
2018-12-29T08:25:38.185Z,6.00
2018-12-29T08:30:43.482Z,6.00
2018-12-29T08:35:48.750Z,6.00
2018-12-29T08:40:53.995Z,6.00
2018-12-29T08:45:59.341Z,6.00
2018-12-29T08:51:04.572Z,6.00
2018-12-29T08:56:09.901Z,6.00
2018-12-29T09:01:15.146Z,5.90
2018-12-29T09:06:20.423Z,5.90
2018-12-29T09:11:25.667Z,5.90
2018-12-29T09:16:30.910Z,5.90
2018-12-29T09:21:36.170Z,5.90
2018-12-29T09:26:41.478Z,5.90
2018-12-29T09:31:46.826Z,5.90
2018-12-29T09:36:52.148Z,5.90
2018-12-29T09:41:57.434Z,6.00
2018-12-29T09:47:02.719Z,6.00
2018-12-29T09:52:07.954Z,6.00
2018-12-29T09:57:13.239Z,5.90
2018-12-29T10:02:18.489Z,6.00
2018-12-29T10:07:23.742Z,6.00
2018-12-29T10:12:28.997Z,6.00
2018-12-29T10:17:34.303Z,6.00
2018-12-29T10:22:39.586Z,6.00
2018-12-29T10:27:44.980Z,6.00
2018-12-29T10:32:50.289Z,6.10
2018-12-29T10:37:55.682Z,6.20
2018-12-29T10:43:01.066Z,6.20
2018-12-29T10:48:06.379Z,6.30
2018-12-29T10:53:11.706Z,6.30
2018-12-29T10:58:17.121Z,6.30
2018-12-29T11:03:22.413Z,6.30
2018-12-29T11:08:27.666Z,6.30
2018-12-29T11:13:32.979Z,6.30
2018-12-29T11:18:38.281Z,6.30
2018-12-29T11:23:43.530Z,6.30
2018-12-29T11:28:48.817Z,6.40
2018-12-29T11:33:55.170Z,6.30
2018-12-29T11:39:00.477Z,6.30
2018-12-29T11:44:05.723Z,6.30
2018-12-29T11:49:17.829Z,6.40
2018-12-29T11:54:16.480Z,6.50
2018-12-29T11:59:21.938Z,6.40
2018-12-29T12:04:27.398Z,6.40
2018-12-29T12:09:32.686Z,6.50
2018-12-29T12:14:37.945Z,6.60
2018-12-29T12:19:43.230Z,6.80
2018-12-29T12:24:48.551Z,6.80
2018-12-29T12:29:53.897Z,6.80
2018-12-29T12:34:59.265Z,6.70
2018-12-29T12:40:04.622Z,6.80
2018-12-29T12:45:10.328Z,6.80
2018-12-29T12:50:15.880Z,6.80
2018-12-29T12:55:21.220Z,6.70
2018-12-29T13:00:26.559Z,6.70
2018-12-29T13:05:31.846Z,6.70
2018-12-29T13:10:37.106Z,6.70
2018-12-29T13:15:42.361Z,6.70
2018-12-29T13:20:47.824Z,6.60
2018-12-29T13:25:53.080Z,6.70
2018-12-29T13:30:58.368Z,6.60
2018-12-29T13:36:03.708Z,6.60
2018-12-29T13:41:08.961Z,6.60
2018-12-29T13:46:14.247Z,6.60
2018-12-29T13:51:19.499Z,6.60
2018-12-29T13:56:24.753Z,6.60
2018-12-29T14:01:30.006Z,6.70
2018-12-29T14:06:35.272Z,7.40
2018-12-29T14:11:40.526Z,7.10
2018-12-29T14:16:45.789Z,6.80
2018-12-29T14:21:51.040Z,6.70
2018-12-29T14:26:56.293Z,6.70
2018-12-29T14:32:01.690Z,6.70
2018-12-29T14:37:06.937Z,6.70
2018-12-29T14:42:12.259Z,6.70
2018-12-29T14:47:17.530Z,6.70
2018-12-29T14:52:22.793Z,6.70
2018-12-29T14:57:28.095Z,6.70
2018-12-29T15:02:33.366Z,6.70
2018-12-29T15:07:38.686Z,6.80
2018-12-29T15:12:43.960Z,6.80
2018-12-29T15:17:49.273Z,6.80
2018-12-29T15:22:54.656Z,6.80
2018-12-29T15:27:59.929Z,6.80
2018-12-29T15:33:05.570Z,6.80
2018-12-29T15:38:10.826Z,6.80
2018-12-29T15:43:16.201Z,6.80
2018-12-29T15:48:21.872Z,6.80
2018-12-29T15:53:27.142Z,6.80
2018-12-29T15:58:32.389Z,6.70
2018-12-29T16:03:37.649Z,6.80
2018-12-29T16:08:42.927Z,6.70
2018-12-29T16:13:48.315Z,6.70
2018-12-29T16:18:58.777Z,6.70
2018-12-29T16:23:58.865Z,6.70
2018-12-29T16:29:04.166Z,6.70
2018-12-29T16:34:09.418Z,6.60
2018-12-29T16:39:14.764Z,6.70
2018-12-29T16:44:20.123Z,6.70
2018-12-29T16:49:25.601Z,6.70
2018-12-29T16:54:30.870Z,6.80
2018-12-29T16:59:36.197Z,6.70
2018-12-29T17:04:41.577Z,6.80
2018-12-29T17:09:46.851Z,6.80
2018-12-29T17:14:52.133Z,7.20
2018-12-29T17:19:57.406Z,7.00
2018-12-29T17:25:02.709Z,6.80
2018-12-29T17:30:08.181Z,6.80
2018-12-29T17:35:13.606Z,6.70
2018-12-29T17:40:18.930Z,6.70
2018-12-29T17:45:24.242Z,6.70
2018-12-29T17:50:29.931Z,6.70
2018-12-29T17:55:35.462Z,6.70
2018-12-29T18:00:40.770Z,6.70
2018-12-29T18:05:46.155Z,6.70
2018-12-29T18:10:51.465Z,6.70
2018-12-29T18:15:56.759Z,6.70
2018-12-29T18:21:16.964Z,6.70
2018-12-29T18:26:22.250Z,6.70
2018-12-29T18:31:27.524Z,6.60
2018-12-29T18:36:32.823Z,6.60
2018-12-29T18:41:38.454Z,6.60
2018-12-29T18:46:43.770Z,6.60
2018-12-29T18:51:49.137Z,6.60
2018-12-29T18:56:54.536Z,6.60
2018-12-29T19:01:59.856Z,6.50
2018-12-29T19:07:05.551Z,6.50
2018-12-29T19:12:11.365Z,6.50
2018-12-29T19:17:16.277Z,6.50
2018-12-29T19:22:21.938Z,6.50
2018-12-29T19:27:27.607Z,6.40
2018-12-29T19:32:32.899Z,6.30
2018-12-29T19:37:38.189Z,6.20
2018-12-29T19:42:43.574Z,6.20
2018-12-29T19:47:48.968Z,6.10
2018-12-29T19:52:54.259Z,6.00
2018-12-29T19:57:59.846Z,5.90
2018-12-29T20:03:05.421Z,5.80
2018-12-29T20:08:10.999Z,5.70
2018-12-29T20:13:16.286Z,5.50
2018-12-29T20:18:21.572Z,5.40
2018-12-29T20:23:26.952Z,5.30
2018-12-29T20:28:32.816Z,5.20
2018-12-29T20:33:38.273Z,5.10
2018-12-29T20:38:43.639Z,5.10
2018-12-29T20:43:48.894Z,5.10
2018-12-29T20:48:54.402Z,5.00
2018-12-29T20:53:59.713Z,5.00
2018-12-29T20:59:05.122Z,4.90
2018-12-29T21:04:10.378Z,4.80
2018-12-29T21:09:15.737Z,4.80
2018-12-29T21:14:21.094Z,4.80
2018-12-29T21:19:26.389Z,4.90
2018-12-29T21:24:31.651Z,4.90
2018-12-29T21:29:37.300Z,4.80
2018-12-29T21:34:42.590Z,4.90
2018-12-29T21:39:48.218Z,4.80
2018-12-29T21:44:53.518Z,4.90
2018-12-29T21:49:58.985Z,4.80
2018-12-29T21:55:04.450Z,4.90
2018-12-29T22:00:10.151Z,4.90
2018-12-29T22:05:15.422Z,4.90
2018-12-29T22:10:20.705Z,5.00
2018-12-29T22:15:25.974Z,5.00
2018-12-29T22:20:33.344Z,4.90
2018-12-29T22:25:36.581Z,4.90
2018-12-29T22:30:41.821Z,5.00
2018-12-29T22:35:47.095Z,5.00
2018-12-29T22:40:52.349Z,5.00
2018-12-29T22:45:57.602Z,5.00
2018-12-29T22:51:02.847Z,5.10
2018-12-29T22:56:08.177Z,5.00
2018-12-29T23:01:13.449Z,5.00
2018-12-29T23:06:18.945Z,5.00
2018-12-29T23:11:24.185Z,5.00
2018-12-29T23:16:29.455Z,4.90
2018-12-29T23:21:34.973Z,5.00
2018-12-29T23:26:40.265Z,5.10
2018-12-29T23:31:45.535Z,5.00
2018-12-29T23:36:50.831Z,5.00
2018-12-29T23:41:56.106Z,5.00
2018-12-29T23:47:01.421Z,5.00
2018-12-29T23:52:06.729Z,5.00
2018-12-29T23:57:12.042Z,5.00
